createdAt,value
2023-01-17T01:06:35.840Z,116943.30
2023-01-17T01:07:38.378Z,116943.30
2023-01-17T01:08:41.683Z,116943.30
2023-01-17T01:09:44.434Z,116943.30
2023-01-17T01:10:47.715Z,116943.30
2023-01-17T01:11:50.612Z,116943.30
2023-01-17T01:12:53.376Z,116943.30
2023-01-17T01:13:56.038Z,116943.30
2023-01-17T01:14:59.219Z,116943.30
2023-01-17T01:16:02.139Z,116943.30
2023-01-17T01:17:04.688Z,116943.30
2023-01-17T01:18:07.854Z,116943.30
2023-01-17T01:19:10.426Z,116943.30
2023-01-17T01:20:13.720Z,116943.30
2023-01-17T01:21:16.472Z,116943.30
2023-01-17T01:22:19.948Z,116943.30
2023-01-17T01:23:22.930Z,116943.30
2023-01-17T01:24:26.137Z,116943.30
2023-01-17T01:25:29.598Z,116943.30
2023-01-17T01:26:33.086Z,116943.30
2023-01-17T01:27:35.659Z,116943.30
2023-01-17T01:28:38.148Z,116943.30
2023-01-17T01:29:40.575Z,116943.30
2023-01-17T01:30:43.163Z,116943.30
2023-01-17T01:31:45.562Z,116943.30
2023-01-17T01:32:47.984Z,116943.30
2023-01-17T01:33:50.184Z,116943.30
2023-01-17T01:34:52.394Z,116943.30
2023-01-17T01:35:54.644Z,116943.30
2023-01-17T01:36:56.895Z,116943.30
2023-01-17T01:37:59.369Z,116943.30
2023-01-17T01:39:01.680Z,116943.30
2023-01-17T01:40:03.823Z,116943.30
2023-01-17T01:41:06.027Z,116943.30
2023-01-17T01:42:08.507Z,116943.30
2023-01-17T01:43:10.876Z,116943.30
2023-01-17T01:44:13.084Z,116943.30
2023-01-17T01:45:15.349Z,116943.30
2023-01-17T01:46:17.519Z,116943.30
2023-01-17T01:47:19.880Z,116943.30
2023-01-17T01:48:22.559Z,116943.30
2023-01-17T01:49:25.128Z,116943.30
2023-01-17T01:50:27.377Z,116943.30
2023-01-17T01:51:29.873Z,116943.30
2023-01-17T01:52:32.133Z,116943.30
2023-01-17T01:53:34.478Z,116943.30
2023-01-17T01:54:36.668Z,116943.30
2023-01-17T01:55:39.360Z,116943.30
2023-01-17T01:56:41.849Z,116943.30
2023-01-17T01:57:44.273Z,116943.30
2023-01-17T01:58:46.557Z,116943.30
2023-01-17T01:59:48.748Z,116943.30
2023-01-17T02:00:51.029Z,116943.30
2023-01-17T02:01:53.481Z,116943.30
2023-01-17T02:02:56.034Z,116943.30
2023-01-17T02:03:58.857Z,116943.30
2023-01-17T02:05:04.413Z,116943.30
2023-01-17T02:06:05.200Z,116943.30
2023-01-17T02:07:07.387Z,116943.30
2023-01-17T02:08:09.590Z,116943.30
2023-01-17T02:09:11.973Z,116943.30
2023-01-17T02:10:14.166Z,116943.30
2023-01-17T02:11:16.403Z,116943.30
2023-01-17T02:12:18.531Z,116943.30
2023-01-17T02:13:20.955Z,116943.30
2023-01-17T02:14:23.621Z,116943.30
2023-01-17T02:15:26.057Z,116943.30
2023-01-17T02:16:28.347Z,116943.30
2023-01-17T02:17:30.662Z,116943.30
2023-01-17T02:18:32.938Z,116943.30
2023-01-17T02:19:35.848Z,116943.30
2023-01-17T02:20:38.341Z,116943.30
2023-01-17T02:21:40.679Z,116943.30
2023-01-17T02:22:42.927Z,116943.30
2023-01-17T02:23:45.194Z,116943.30
2023-01-17T02:24:47.674Z,116943.30
2023-01-17T02:25:49.973Z,116943.30
2023-01-17T02:26:52.130Z,116943.30
2023-01-17T02:27:54.571Z,116943.30
2023-01-17T02:28:56.993Z,116943.30
2023-01-17T02:29:59.566Z,116943.30
2023-01-17T02:31:01.773Z,116943.30
2023-01-17T02:32:03.988Z,116943.30
2023-01-17T02:33:06.427Z,116943.30
2023-01-17T02:34:08.940Z,116943.30
2023-01-17T02:35:13.343Z,116943.30
2023-01-17T02:36:16.754Z,116943.30
2023-01-17T02:37:18.985Z,116943.30
2023-01-17T02:38:21.210Z,116943.30
2023-01-17T02:39:23.407Z,116943.30
2023-01-17T02:40:25.717Z,116943.30
2023-01-17T02:41:27.918Z,116943.30
2023-01-17T02:42:30.191Z,116943.30
2023-01-17T02:43:32.639Z,116943.30
2023-01-17T02:44:34.903Z,116943.30
2023-01-17T02:45:37.391Z,116943.30
2023-01-17T02:46:40.002Z,116943.30
2023-01-17T02:47:42.494Z,116943.30
2023-01-17T02:48:44.938Z,116943.30
2023-01-17T02:49:47.456Z,116943.30
2023-01-17T02:50:49.904Z,116943.30
2023-01-17T02:51:52.095Z,116943.30
2023-01-17T02:52:54.397Z,116943.30
2023-01-17T02:53:56.858Z,116943.30
2023-01-17T02:54:59.398Z,116943.30
2023-01-17T02:56:01.935Z,116943.30
2023-01-17T02:57:04.398Z,116943.30
2023-01-17T02:58:06.820Z,116943.30
2023-01-17T02:59:09.048Z,116943.30
2023-01-17T03:00:11.247Z,116943.30
2023-01-17T03:01:14.007Z,116943.30
2023-01-17T03:02:16.581Z,116943.30
2023-01-17T03:03:18.919Z,116943.30
2023-01-17T03:04:21.124Z,116943.30
2023-01-17T03:05:23.626Z,116943.30
2023-01-17T03:06:26.273Z,116943.30
2023-01-17T03:07:28.794Z,116943.30
2023-01-17T03:08:31.037Z,116943.30
2023-01-17T03:09:33.287Z,116943.30
2023-01-17T03:10:35.536Z,116943.30
2023-01-17T03:11:37.925Z,116943.30
2023-01-17T03:12:40.227Z,116943.30
2023-01-17T03:13:42.453Z,116943.30
2023-01-17T03:14:44.665Z,116943.30
2023-01-17T03:15:46.885Z,116943.30
2023-01-17T03:16:49.239Z,116943.30
2023-01-17T03:17:51.850Z,116943.30
2023-01-17T03:18:54.034Z,116943.30
2023-01-17T03:19:56.385Z,116943.30
2023-01-17T03:20:58.845Z,116943.30
2023-01-17T03:22:01.548Z,116943.30
2023-01-17T03:23:03.834Z,116943.30
2023-01-17T03:24:06.116Z,116943.30
2023-01-17T03:25:08.348Z,116943.30
2023-01-17T03:26:10.694Z,116943.30
2023-01-17T03:27:13.336Z,116943.30
2023-01-17T03:28:15.833Z,116943.30
2023-01-17T03:29:18.396Z,116943.30
2023-01-17T03:30:20.911Z,116943.30
2023-01-17T03:31:23.157Z,116943.30
2023-01-17T03:32:25.555Z,116943.30
2023-01-17T03:33:27.965Z,116943.30
2023-01-17T03:34:30.505Z,116943.30
2023-01-17T03:35:32.983Z,116943.30
2023-01-17T03:36:35.425Z,116943.30
2023-01-17T03:37:37.895Z,116943.30
2023-01-17T03:38:40.441Z,116943.30
2023-01-17T03:39:42.733Z,116943.30
2023-01-17T03:40:44.972Z,116943.30
2023-01-17T03:41:47.167Z,116943.30
2023-01-17T03:42:49.687Z,116943.30
2023-01-17T03:43:51.907Z,116943.30
2023-01-17T03:44:54.136Z,116943.30
2023-01-17T03:45:56.429Z,116943.30
2023-01-17T03:46:58.993Z,116943.30
2023-01-17T03:48:01.225Z,116943.30
2023-01-17T03:49:03.440Z,116943.30
2023-01-17T03:50:05.677Z,116943.30
2023-01-17T03:51:07.917Z,116943.30
2023-01-17T03:52:10.336Z,116943.30
2023-01-17T03:53:12.939Z,116943.30
2023-01-17T03:54:15.266Z,116943.30
2023-01-17T03:55:17.726Z,116943.30
2023-01-17T03:56:19.916Z,116943.30
2023-01-17T03:57:22.132Z,116943.30
2023-01-17T03:58:24.698Z,116943.30
2023-01-17T03:59:27.194Z,116943.30
2023-01-17T04:00:29.611Z,116943.30
2023-01-17T04:01:31.900Z,116943.30
2023-01-17T04:02:34.224Z,116943.30
2023-01-17T04:03:36.598Z,116943.30
2023-01-17T04:04:39.036Z,116943.30
2023-01-17T04:05:41.485Z,116943.30
2023-01-17T04:06:43.919Z,116943.30
2023-01-17T04:07:46.477Z,116943.30
2023-01-17T04:08:49.200Z,116943.30
2023-01-17T04:09:51.408Z,116943.30
2023-01-17T04:10:54.216Z,116943.30
2023-01-17T04:11:56.399Z,116943.30
2023-01-17T04:12:58.588Z,116943.30
2023-01-17T04:14:00.946Z,116943.30
2023-01-17T04:15:03.150Z,116943.30
2023-01-17T04:16:05.355Z,116943.30
2023-01-17T04:17:07.540Z,116943.30
2023-01-17T04:18:09.965Z,116943.30
2023-01-17T04:19:12.679Z,116943.30
2023-01-17T04:20:15.100Z,116943.30
2023-01-17T04:21:17.547Z,116943.30
2023-01-17T04:22:19.999Z,116943.30
2023-01-17T04:23:22.228Z,116943.30
2023-01-17T04:24:24.490Z,116943.30
2023-01-17T04:25:26.914Z,116943.30
2023-01-17T04:26:29.417Z,116943.30
2023-01-17T04:27:31.601Z,116943.30
2023-01-17T04:28:34.012Z,116943.30
2023-01-17T04:29:36.590Z,116943.30
2023-01-17T04:30:39.060Z,116943.30
2023-01-17T04:31:41.545Z,116943.30
2023-01-17T04:32:43.979Z,116943.30
2023-01-17T04:33:46.457Z,116943.30
2023-01-17T04:34:49.217Z,116943.30
2023-01-17T04:35:51.972Z,116943.30
2023-01-17T04:36:54.276Z,116943.30
2023-01-17T04:37:56.531Z,116943.30
2023-01-17T04:38:59.328Z,116943.30
2023-01-17T04:40:01.885Z,116943.30
2023-01-17T04:41:04.385Z,116943.30
2023-01-17T04:42:06.571Z,116943.30
2023-01-17T04:43:08.825Z,116943.30
2023-01-17T04:44:11.049Z,116943.30
2023-01-17T04:45:13.298Z,116943.30
2023-01-17T04:46:15.593Z,116943.30
2023-01-17T04:47:17.889Z,116943.30
2023-01-17T04:48:20.064Z,116943.30
2023-01-17T04:49:22.283Z,116943.30
2023-01-17T04:50:24.513Z,116943.30
2023-01-17T04:51:26.833Z,116943.30
2023-01-17T04:52:29.399Z,116943.30
2023-01-17T04:53:31.688Z,116943.30
2023-01-17T04:54:34.066Z,116943.30
2023-01-17T04:55:36.656Z,116943.30
2023-01-17T04:56:38.971Z,116943.30
2023-01-17T04:57:41.188Z,116943.30
2023-01-17T04:58:43.381Z,116943.30
2023-01-17T04:59:45.983Z,116943.30
2023-01-17T05:00:48.587Z,116943.30
2023-01-17T05:01:51.073Z,116943.30
2023-01-17T05:02:53.342Z,116943.30
2023-01-17T05:03:55.671Z,116943.30
2023-01-17T05:04:57.848Z,116943.30
2023-01-17T05:06:00.571Z,116943.30
2023-01-17T05:07:02.786Z,116943.30
2023-01-17T05:08:05.259Z,116943.30
2023-01-17T05:09:07.753Z,116943.30
2023-01-17T05:10:10.022Z,116943.30
2023-01-17T05:11:12.400Z,116943.30
2023-01-17T05:12:14.927Z,116943.30
2023-01-17T05:13:17.379Z,116943.30
2023-01-17T05:14:19.598Z,116943.30
2023-01-17T05:15:21.804Z,116943.30
2023-01-17T05:16:24.067Z,116943.30
2023-01-17T05:17:26.530Z,116943.30
2023-01-17T05:18:28.721Z,116943.30
2023-01-17T05:19:30.973Z,116943.30
2023-01-17T05:20:33.297Z,116943.30
2023-01-17T05:21:35.928Z,116943.30
2023-01-17T05:22:38.447Z,116943.30
2023-01-17T05:23:40.657Z,116943.30
2023-01-17T05:24:42.883Z,116943.30
2023-01-17T05:25:45.122Z,116943.30
2023-01-17T05:26:50.241Z,116943.30
2023-01-17T05:27:51.494Z,116943.30
2023-01-17T05:28:53.724Z,116943.30
2023-01-17T05:29:55.964Z,116943.30
2023-01-17T05:30:58.268Z,116943.30
2023-01-17T05:32:00.987Z,116943.30
2023-01-17T05:33:03.181Z,116943.30
2023-01-17T05:34:05.349Z,116943.30
2023-01-17T05:35:07.862Z,116943.30
2023-01-17T05:36:10.091Z,116943.30
2023-01-17T05:37:12.881Z,116943.30
2023-01-17T05:38:15.420Z,116943.30
2023-01-17T05:39:18.088Z,116943.30
2023-01-17T05:40:20.544Z,116943.30
2023-01-17T05:41:22.915Z,116943.30
2023-01-17T05:42:25.269Z,116943.30
2023-01-17T05:43:27.791Z,116943.30
2023-01-17T05:44:30.239Z,116943.30
2023-01-17T05:45:32.510Z,116943.30
2023-01-17T05:46:34.791Z,116943.30
2023-01-17T05:47:37.128Z,116943.30
2023-01-17T05:48:39.503Z,116943.30
2023-01-17T05:49:43.894Z,116943.30
2023-01-17T05:50:46.033Z,116943.30
2023-01-17T05:51:48.413Z,116943.30
2023-01-17T05:52:51.351Z,116943.30
2023-01-17T05:53:53.702Z,116943.30
2023-01-17T05:54:55.978Z,116943.30
2023-01-17T05:55:58.463Z,116943.30
2023-01-17T05:57:00.864Z,116943.30
2023-01-17T05:58:03.435Z,116943.30
2023-01-17T05:59:05.720Z,116943.30
2023-01-17T06:00:08.105Z,116943.30
2023-01-17T06:01:10.342Z,116943.30
2023-01-17T06:02:12.645Z,116943.30
2023-01-17T06:03:15.335Z,116943.30
2023-01-17T06:04:17.869Z,116943.30
2023-01-17T06:05:20.050Z,116943.30
2023-01-17T06:06:22.306Z,116943.30
2023-01-17T06:07:24.613Z,116943.30
2023-01-17T06:08:27.112Z,116943.30
2023-01-17T06:09:29.685Z,116943.30
2023-01-17T06:10:31.941Z,116943.30
2023-01-17T06:11:34.170Z,116943.30
2023-01-17T06:12:36.637Z,116943.30
2023-01-17T06:13:39.311Z,116943.30
2023-01-17T06:14:41.580Z,116943.30
2023-01-17T06:15:44.332Z,116943.30
2023-01-17T06:16:46.609Z,116943.30
2023-01-17T06:17:48.937Z,116943.30
2023-01-17T06:18:51.212Z,116943.30
2023-01-17T06:19:53.409Z,116943.30
2023-01-17T06:20:55.598Z,116943.30
2023-01-17T06:21:57.876Z,116943.30
2023-01-17T06:23:00.091Z,116943.30
2023-01-17T06:24:04.209Z,116943.30
2023-01-17T06:25:06.445Z,116943.30
2023-01-17T06:26:08.766Z,116943.30
2023-01-17T06:27:11.175Z,116943.30
2023-01-17T06:28:13.426Z,116943.30
2023-01-17T06:29:16.001Z,116943.30
2023-01-17T06:30:18.542Z,116943.30
2023-01-17T06:31:20.776Z,116943.30
2023-01-17T06:32:22.992Z,116943.30
2023-01-17T06:33:25.255Z,116943.30
2023-01-17T06:34:27.764Z,116943.30
2023-01-17T06:35:30.216Z,116943.30
2023-01-17T06:36:32.409Z,116943.30
2023-01-17T06:37:34.629Z,116943.30
2023-01-17T06:38:37.101Z,116943.30
2023-01-17T06:39:39.787Z,116943.30
2023-01-17T06:40:42.081Z,116943.30
2023-01-17T06:41:44.381Z,116943.30
2023-01-17T06:42:46.591Z,116943.30
2023-01-17T06:43:48.840Z,116943.30
2023-01-17T06:44:51.440Z,116943.30
2023-01-17T06:45:53.659Z,116943.30
2023-01-17T06:46:56.058Z,116943.30
2023-01-17T06:47:58.297Z,116943.30
2023-01-17T06:49:00.521Z,116943.30
2023-01-17T06:50:03.099Z,116943.30
2023-01-17T06:51:05.313Z,116943.30
2023-01-17T06:52:07.605Z,116943.30
2023-01-17T06:53:09.763Z,116943.30
2023-01-17T06:54:11.976Z,116943.30
2023-01-17T06:55:14.473Z,116943.30
2023-01-17T06:56:16.727Z,116943.30
2023-01-17T06:57:18.925Z,116943.30
2023-01-17T06:58:21.224Z,116943.30
2023-01-17T06:59:23.397Z,116943.30
2023-01-17T07:00:25.646Z,116943.30
2023-01-17T07:01:28.016Z,116943.30
2023-01-17T07:02:30.323Z,116943.30
2023-01-17T07:03:32.730Z,116943.30
2023-01-17T07:04:34.948Z,116943.30
2023-01-17T07:05:37.111Z,116943.30
2023-01-17T07:06:39.633Z,116943.30
2023-01-17T07:07:41.850Z,116943.30
2023-01-17T07:08:44.322Z,116943.30
2023-01-17T07:09:46.773Z,116943.30
2023-01-17T07:10:49.540Z,116943.30
2023-01-17T07:11:51.754Z,116943.30
2023-01-17T07:12:54.065Z,116943.30
2023-01-17T07:13:56.676Z,116943.30
2023-01-17T07:14:59.155Z,116943.30
2023-01-17T07:16:01.522Z,116943.30
2023-01-17T07:17:04.027Z,116943.30
2023-01-17T07:18:06.280Z,116943.30
2023-01-17T07:19:08.887Z,116943.30
2023-01-17T07:20:11.109Z,116943.30
2023-01-17T07:21:13.618Z,116943.30
2023-01-17T07:22:15.851Z,116943.30
2023-01-17T07:23:18.282Z,116943.30
2023-01-17T07:24:20.732Z,116943.30
2023-01-17T07:25:22.992Z,116943.30
2023-01-17T07:26:25.237Z,116943.30
2023-01-17T07:27:27.444Z,116943.30
2023-01-17T07:28:29.690Z,116943.30
2023-01-17T07:29:32.097Z,116943.30
2023-01-17T07:30:34.617Z,116943.30
2023-01-17T07:31:37.103Z,116943.30
2023-01-17T07:32:39.384Z,116943.30
2023-01-17T07:33:41.849Z,116943.30
2023-01-17T07:34:44.356Z,116943.30
2023-01-17T07:35:46.535Z,116943.30
2023-01-17T07:36:48.800Z,116943.30
2023-01-17T07:37:50.992Z,116943.30
2023-01-17T07:38:53.336Z,116943.30
2023-01-17T07:39:55.782Z,116943.30
2023-01-17T07:40:58.225Z,116943.30
2023-01-17T07:42:00.847Z,116943.30
2023-01-17T07:43:03.586Z,116943.30
2023-01-17T07:44:05.820Z,116943.30
2023-01-17T07:45:08.008Z,116943.30
2023-01-17T07:46:10.346Z,116943.30
2023-01-17T07:47:12.739Z,116943.30
2023-01-17T07:48:14.979Z,116943.30
2023-01-17T07:49:17.175Z,116943.30
2023-01-17T07:50:19.493Z,116943.30
2023-01-17T07:51:21.668Z,116943.30
2023-01-17T07:52:24.127Z,116943.30
2023-01-17T07:53:26.701Z,116943.30
2023-01-17T07:54:29.145Z,116943.30
2023-01-17T07:55:31.640Z,116943.30
2023-01-17T07:56:34.128Z,116943.30
2023-01-17T07:57:36.600Z,116943.30
2023-01-17T07:58:38.808Z,116943.30
2023-01-17T07:59:41.028Z,116943.30
2023-01-17T08:00:43.491Z,116943.30
2023-01-17T08:01:46.204Z,116943.30
2023-01-17T08:02:49.027Z,116943.30
2023-01-17T08:03:51.322Z,116943.30
2023-01-17T08:04:53.632Z,116943.30
2023-01-17T08:05:56.156Z,116943.30
2023-01-17T08:06:58.372Z,116943.30
2023-01-17T08:08:00.721Z,116943.30
2023-01-17T08:09:02.982Z,116943.30
2023-01-17T08:10:05.437Z,116943.30
2023-01-17T08:11:08.037Z,116943.30
2023-01-17T08:12:10.484Z,116943.30
2023-01-17T08:13:12.791Z,116943.30
2023-01-17T08:14:15.014Z,116943.30
2023-01-17T08:15:17.673Z,116943.30
2023-01-17T08:16:19.995Z,116943.30
2023-01-17T08:17:22.227Z,116943.30
2023-01-17T08:18:24.708Z,116943.30
2023-01-17T08:19:27.014Z,116943.30
2023-01-17T08:20:29.626Z,116943.30
2023-01-17T08:21:32.128Z,116943.30
2023-01-17T08:22:34.641Z,116943.30
2023-01-17T08:23:37.105Z,116943.30
2023-01-17T08:24:39.381Z,116943.30
2023-01-17T08:25:41.799Z,116943.30
2023-01-17T08:26:44.038Z,116943.30
2023-01-17T08:27:46.252Z,116943.30
2023-01-17T08:28:48.497Z,116943.30
2023-01-17T08:29:50.730Z,116943.30
2023-01-17T08:30:53.151Z,116943.30
2023-01-17T08:31:55.660Z,116943.30
2023-01-17T08:32:57.895Z,116943.30
2023-01-17T08:34:00.205Z,116943.30
2023-01-17T08:35:02.350Z,116943.30
2023-01-17T08:36:04.618Z,116943.30
2023-01-17T08:37:06.800Z,116943.30
2023-01-17T08:38:09.208Z,116943.30
2023-01-17T08:39:11.567Z,116943.30
2023-01-17T08:40:13.922Z,116943.30
2023-01-17T08:41:16.321Z,116943.30
2023-01-17T08:42:18.545Z,116943.30
2023-01-17T08:44:28.630Z,116943.30
2023-01-17T08:45:30.894Z,116943.30
2023-01-17T08:46:33.183Z,116943.30
2023-01-17T08:47:35.617Z,116943.30
2023-01-17T08:48:38.067Z,116943.30
2023-01-17T08:49:40.870Z,116943.30
2023-01-17T08:50:43.292Z,116943.30
2023-01-17T08:51:45.776Z,116943.30
2023-01-17T08:52:48.295Z,116943.30
2023-01-17T08:53:50.772Z,116943.30
2023-01-17T08:54:53.487Z,116943.30
2023-01-17T08:55:55.900Z,116943.30
2023-01-17T08:56:58.396Z,116943.30
2023-01-17T08:58:00.649Z,116943.30
2023-01-17T08:59:03.001Z,116943.30
2023-01-17T09:00:05.461Z,116943.30
2023-01-17T09:01:07.767Z,116943.30
2023-01-17T09:02:10.229Z,116943.30
2023-01-17T09:03:13.222Z,116943.30
2023-01-17T09:04:15.752Z,116943.30
2023-01-17T09:05:18.073Z,116943.30
2023-01-17T09:06:20.331Z,116943.30
2023-01-17T09:07:22.690Z,116943.30
2023-01-17T09:08:24.885Z,116943.30
2023-01-17T09:09:27.070Z,116943.30
2023-01-17T09:10:29.494Z,116943.30
2023-01-17T09:11:31.796Z,116943.30
2023-01-17T09:12:34.304Z,116943.30
2023-01-17T09:13:36.581Z,116943.30
2023-01-17T09:14:39.025Z,116943.30
2023-01-17T09:15:41.658Z,116943.30
2023-01-17T09:16:43.988Z,116943.30
2023-01-17T09:17:46.370Z,116943.30
2023-01-17T09:18:48.976Z,116943.30
2023-01-17T09:19:51.318Z,116943.30
2023-01-17T09:20:53.518Z,116943.30
2023-01-17T09:21:55.994Z,116943.30
2023-01-17T09:22:58.448Z,116943.30
2023-01-17T09:24:00.685Z,116943.30
2023-01-17T09:25:02.859Z,116943.30
2023-01-17T09:26:05.308Z,116943.30
2023-01-17T09:27:07.809Z,116943.30
2023-01-17T09:28:10.072Z,116943.30
2023-01-17T09:29:12.471Z,116943.30
2023-01-17T09:30:14.968Z,116943.30
2023-01-17T09:31:17.939Z,116943.30
2023-01-17T09:32:20.235Z,116943.30
2023-01-17T09:33:22.437Z,116943.30
2023-01-17T09:34:24.609Z,116943.30
2023-01-17T09:35:27.007Z,116943.30
2023-01-17T09:36:29.447Z,116943.30
2023-01-17T09:37:31.679Z,116943.30
2023-01-17T09:38:33.964Z,116943.30
2023-01-17T09:39:36.205Z,116943.30
2023-01-17T09:40:38.461Z,116943.30
2023-01-17T09:41:41.333Z,116943.30
2023-01-17T09:42:43.583Z,116943.30
2023-01-17T09:43:45.818Z,116943.30
2023-01-17T09:44:48.377Z,116943.30
2023-01-17T09:45:50.929Z,116943.30
2023-01-17T09:46:53.483Z,116943.30
2023-01-17T09:47:55.999Z,116943.30
2023-01-17T09:48:58.275Z,116943.30
2023-01-17T09:50:00.521Z,116943.30
2023-01-17T09:51:02.763Z,116943.30
2023-01-17T09:52:05.044Z,116943.30
2023-01-17T09:53:07.590Z,116943.30
2023-01-17T09:54:09.992Z,116943.30
2023-01-17T09:55:12.463Z,116943.30
2023-01-17T09:56:14.936Z,116943.30
2023-01-17T09:57:17.448Z,116943.30
2023-01-17T09:58:19.716Z,116943.30
2023-01-17T09:59:21.970Z,116943.30
2023-01-17T10:00:24.477Z,116943.30
2023-01-17T10:01:26.821Z,116943.30
2023-01-17T10:02:29.358Z,116943.30
2023-01-17T10:03:31.969Z,116943.30
2023-01-17T10:04:34.355Z,116943.30
2023-01-17T10:05:36.852Z,116943.30
2023-01-17T10:06:39.115Z,116943.30
2023-01-17T10:07:41.385Z,116943.30
2023-01-17T10:08:43.671Z,116943.30
2023-01-17T10:09:46.039Z,116943.30
2023-01-17T10:10:48.243Z,116943.30
2023-01-17T10:11:50.474Z,116943.30
2023-01-17T10:12:53.121Z,116943.30
2023-01-17T10:13:55.591Z,116943.30
2023-01-17T10:14:57.773Z,116943.30
2023-01-17T10:16:00.832Z,116943.30
2023-01-17T10:17:03.427Z,116943.30
2023-01-17T10:18:05.677Z,116943.30
2023-01-17T10:19:07.941Z,116943.30
2023-01-17T10:20:10.414Z,116943.30
2023-01-17T10:21:12.734Z,116943.30
2023-01-17T10:22:14.952Z,116943.30
2023-01-17T10:23:17.258Z,116943.30
2023-01-17T10:24:19.502Z,116943.30
2023-01-17T10:25:21.678Z,116943.30
2023-01-17T10:26:24.021Z,116943.30
2023-01-17T10:27:26.241Z,116943.30
2023-01-17T10:28:28.596Z,116943.30
2023-01-17T10:29:30.808Z,116943.30
2023-01-17T10:30:33.073Z,116943.30
2023-01-17T10:31:35.555Z,116943.30
2023-01-17T10:32:37.848Z,116943.30
2023-01-17T10:33:40.233Z,116943.30
2023-01-17T10:34:42.578Z,116943.30
2023-01-17T10:35:44.784Z,116943.30
2023-01-17T10:36:47.219Z,116943.30
2023-01-17T10:37:49.460Z,116943.30
2023-01-17T10:38:51.966Z,116943.30
2023-01-17T10:39:54.426Z,116943.30
2023-01-17T10:40:56.868Z,116943.30
2023-01-17T10:41:59.097Z,116943.30
2023-01-17T10:43:01.584Z,116943.30
2023-01-17T10:44:04.056Z,116943.30
2023-01-17T10:45:06.310Z,116943.30
2023-01-17T10:46:08.632Z,116943.30
2023-01-17T10:47:10.958Z,116837.41
2023-01-17T10:48:13.291Z,116645.00
2023-01-17T10:49:16.028Z,116256.14
2023-01-17T10:50:18.306Z,115976.22
2023-01-17T10:51:20.666Z,115572.15
2023-01-17T10:52:22.972Z,115074.50
2023-01-17T10:53:25.353Z,114811.95
2023-01-17T10:54:27.805Z,114616.59
2023-01-17T10:55:29.991Z,114431.41
2023-01-17T10:56:32.203Z,114231.98
2023-01-17T10:57:34.480Z,113953.23
2023-01-17T10:58:36.850Z,113610.39
2023-01-17T10:59:39.239Z,113228.94
2023-01-17T11:00:41.731Z,112895.31
2023-01-17T11:01:44.308Z,112456.98
2023-01-17T11:02:46.977Z,111949.53
2023-01-17T11:03:49.563Z,111511.30
2023-01-17T11:04:51.888Z,111041.59
2023-01-17T11:05:54.288Z,110537.37
2023-01-17T11:06:58.544Z,109938.70
2023-01-17T11:08:00.817Z,109192.77
2023-01-17T11:09:03.248Z,107620.05
2023-01-17T11:10:05.758Z,106783.15
2023-01-17T11:11:07.968Z,106499.81
2023-01-17T11:12:10.212Z,106666.36
2023-01-17T11:13:12.390Z,106792.28
2023-01-17T11:14:14.566Z,106694.80
2023-01-17T11:15:16.744Z,106609.48
2023-01-17T11:16:18.999Z,106738.47
2023-01-17T11:17:21.228Z,106839.00
2023-01-17T11:18:23.416Z,106899.94
2023-01-17T11:19:25.666Z,107034.00
2023-01-17T11:20:28.272Z,107217.83
2023-01-17T11:21:30.735Z,107425.03
2023-01-17T11:22:33.042Z,107722.66
2023-01-17T11:23:35.430Z,108024.35
2023-01-17T11:24:37.715Z,108304.74
2023-01-17T11:25:40.250Z,108680.66
2023-01-17T11:26:42.483Z,109197.85
2023-01-17T11:27:44.878Z,109654.14
2023-01-17T11:28:47.362Z,109987.48
2023-01-17T11:29:49.611Z,110444.88
2023-01-17T11:30:52.176Z,110555.67
2023-01-17T11:31:54.682Z,110724.41
2023-01-17T11:32:56.937Z,110535.34
2023-01-17T11:33:59.150Z,110272.08
2023-01-17T11:35:01.637Z,109995.62
2023-01-17T11:36:04.356Z,109713.08
2023-01-17T11:37:06.681Z,109564.70
2023-01-17T11:38:09.100Z,109215.13
2023-01-17T11:39:11.786Z,108767.02
2023-01-17T11:40:14.235Z,108626.81
2023-01-17T11:41:16.791Z,108593.28
2023-01-17T11:42:19.342Z,108433.77
2023-01-17T11:43:21.838Z,108426.66
2023-01-17T11:44:24.807Z,108673.55
2023-01-17T11:45:27.078Z,108878.79
2023-01-17T11:46:29.903Z,109343.16
2023-01-17T11:47:32.144Z,109489.50
2023-01-17T11:48:34.611Z,109445.80
2023-01-17T11:49:36.841Z,109265.94
2023-01-17T11:50:39.157Z,109227.32
2023-01-17T11:51:41.974Z,109211.06
2023-01-17T11:52:44.263Z,109191.75
2023-01-17T11:53:46.539Z,109060.67
2023-01-17T11:54:48.759Z,109053.56
2023-01-17T11:55:51.298Z,108977.34
2023-01-17T11:56:53.688Z,108986.50
2023-01-17T11:57:56.551Z,108969.22
2023-01-17T11:58:58.816Z,108997.67
2023-01-17T12:00:01.578Z,109125.70
2023-01-17T12:01:04.138Z,109184.64
2023-01-17T12:02:06.797Z,109188.70
2023-01-17T12:03:09.026Z,109066.77
2023-01-17T12:04:11.245Z,108859.48
2023-01-17T12:05:13.538Z,109202.94
2023-01-17T12:06:15.822Z,109800.48
2023-01-17T12:07:18.228Z,110399.14
2023-01-17T12:08:20.450Z,111206.28
2023-01-17T12:09:22.756Z,111254.07
2023-01-17T12:10:25.108Z,111087.34
2023-01-17T12:11:27.303Z,110986.70
2023-01-17T12:12:29.769Z,111425.89
2023-01-17T12:13:31.925Z,111764.48
2023-01-17T12:14:34.568Z,111871.24
2023-01-17T12:15:37.183Z,112250.53
2023-01-17T12:16:39.448Z,112742.76
2023-01-17T12:17:41.705Z,112999.06
2023-01-17T12:18:44.318Z,112989.91
2023-01-17T12:19:46.741Z,113178.08
2023-01-17T12:20:49.234Z,113399.83
2023-01-17T12:21:51.481Z,113589.03
2023-01-17T12:22:53.969Z,114045.80
2023-01-17T12:23:56.376Z,114047.84
2023-01-17T12:24:58.841Z,114071.23
2023-01-17T12:26:01.084Z,114212.66
2023-01-17T12:27:03.322Z,114280.83
2023-01-17T12:28:05.803Z,114364.25
2023-01-17T12:29:07.979Z,114495.51
2023-01-17T12:30:10.331Z,114815.02
2023-01-17T12:31:12.611Z,115107.06
2023-01-17T12:32:15.169Z,115458.16
2023-01-17T12:33:17.811Z,115343.16
2023-01-17T12:34:20.265Z,115041.94
2023-01-17T12:35:22.612Z,114956.45
2023-01-17T12:36:24.838Z,114677.64
2023-01-17T12:37:27.317Z,114135.34
2023-01-17T12:38:32.824Z,113845.39
2023-01-17T12:39:33.916Z,113369.31
2023-01-17T12:40:36.187Z,113045.84
2023-01-17T12:41:38.404Z,112701.06
2023-01-17T12:42:40.866Z,112717.33
2023-01-17T12:43:43.521Z,112570.87
2023-01-17T12:44:46.018Z,112515.96
2023-01-17T12:45:48.510Z,112714.28
2023-01-17T12:46:50.922Z,112826.16
2023-01-17T12:47:53.209Z,112686.82
2023-01-17T12:48:55.817Z,112769.20
2023-01-17T12:49:57.983Z,113225.88
2023-01-17T12:51:00.215Z,113535.11
2023-01-17T12:52:02.401Z,113181.13
2023-01-17T12:53:04.819Z,113092.64
2023-01-17T12:54:07.329Z,112846.50
2023-01-17T12:55:09.755Z,113022.45
2023-01-17T12:56:11.912Z,113513.75
2023-01-17T12:57:14.235Z,113818.94
2023-01-17T12:58:16.434Z,114153.65
2023-01-17T12:59:18.709Z,114153.65